x

Buoy B01 - Western Maine Shelf (44030) Wave Buoy

4:04am - Thu 27th Nov 2014 All times are EST. -5 hours from GMT.

  • Sig Wave height 9.8ft
  • Peak Period 8s
  • Wind
    34mph, 38mph gusts
  • Sea Temp 50°f
  • Air Temp 35°f
  • Sea Pressure 1004.7mb
  • Buoy B01 - Western Maine Shelf
  • Buoy B01 - Western Maine Shelf

More Historic Weather Station data

Upgrade to MSW Pro to gain access to the past 30 days of data for over 8000 Wavebouys and Weather Stations around the globe.

Join Pro

Comparision Forecast

View Surf forecast
   
Thu 11/27 4:04am 10ft 8s 34 38 mph 1004.7mb 50f 35f
3:04am 12ft 8s 31 38 mph 1004.2mb 50f 36f
2:04am 10ft 11s 31 38 mph 1004mb 50f 36f
1:04am 10.5ft 8s 36 45 mph 1003mb 50f 36f
12:04am 10.5ft 8s 34 45 mph 1003.3mb 50f 37f
Wed 11/26 11:04pm 10ft 8s 36 45 mph 1004.4mb 50f 36f
10:04pm 11ft 8s 34 43 mph 1005.9mb 50f 37f
9:04pm 10.5ft 8s 36 45 mph 1006.7mb 50f 38f
8:04pm 8.5ft 6s 34 40 mph 1008.5mb 50f 38f
7:04pm 8ft 6s 31 38 mph 1009.7mb 50f 37f
6:04pm 7ft 5s 31 36 mph 1012.7mb 50f 38f
5:04pm 6ft 5s 29 36 mph 1014mb 50f 38f
4:04pm 5.5ft 5s 29 34 mph 1015.6mb 50f 37f
3:04pm 5ft 5s 25 31 mph 1018.3mb 50f 37f
2:04pm 4.5ft 5s 25 27 mph 1018.1mb 50f 37f
1:04pm 4ft 5s 25 29 mph 1018.3mb 50f 38f
12:04pm 3.5ft 4s 20 25 mph 1019.2mb 50f 41f
11:04am 4.5ft 11s 20 25 mph 1019.4mb 50f 44f
10:04am  -   -  18 22 mph 1020mb 50f 45f
9:04am 3.5ft 8s 16 20 mph 1021.1mb 50f 45f
8:04am 3.5ft 8s 16 18 mph 1020.7mb 50f 45f
7:04am 3.5ft 11s 13 16 mph 1020.8mb 50f 45f
6:04am 3.5ft 11s 13 16 mph 1020.8mb 50f 46f
5:04am  -   -  16 20 mph 1020.5mb 50f 46f
4:04am  -   -  18 20 mph 1020.6mb 50f 47f
3:04am 3.5ft 11s 16 20 mph 1020.2mb 50f 47f
2:04am 3.5ft 11s 13 16 mph 1018.9mb 50f 49f
1:04am  -   -  13 16 mph 1018.3mb 50f 50f
12:04am 3.5ft 8s 11 13 mph 1017.4mb 50f 50f
Tue 11/25 11:04pm 3.5ft 8s 11 13 mph 1017.3mb 50f 50f
10:04pm 4.5ft 8s 7 9 mph 1016.3mb 50f 50f
9:04pm 4.5ft 8s 9 13 mph 1015.7mb 50f 51f
8:04pm 5ft 11s 9 11 mph 1014.9mb 50f 51f
7:04pm 5ft 11s 16 18 mph 1014.1mb 50f 52f
6:04pm 5ft 11s 13 16 mph 1013mb 50f 53f
5:04pm 5ft 11s 13 18 mph 1011.3mb 50f 55f
4:04pm 4.5ft 11s 9 11 mph 1010.2mb 50f 52f
3:04pm 4.5ft 11s 9
mph
1009.4mb 50f 54f
2:04pm 4ft 11s 11 13 mph 1009.1mb 50f 55f
1:04pm 4.5ft 11s 11 16 mph 1008.6mb 50f 55f
12:04pm 4.5ft 11s 13
mph
1008.5mb 50f 54f
11:04am 4.5ft 8s 13 16 mph 1008.3mb 50f 55f
10:04am 5.5ft 11s 16 18 mph 1008.3mb 50f 54f
9:04am 6ft 11s 16 20 mph 1008.2mb 50f 53f
8:04am 6.5ft 11s 18 20 mph 1007.5mb 50f 54f
7:04am 5.5ft 8s 18 22 mph 1006.4mb 50f 53f
6:04am 7.5ft 11s 20 22 mph 1005.8mb 50f 53f
5:04am 7ft 11s 20 25 mph 1004.5mb 50f 54f
4:04am 6ft 8s 20 22 mph 1003.9mb 50f 54f
3:04am 7ft 11s 18 20 mph 1003.7mb 50f 53f
2:04am 5.5ft 11s 9 11 mph 1003.6mb 50f 54f
1:04am 6ft 8s 11
mph
1002.8mb 50f 54f
12:04am 6ft 8s 18 20 mph 1002.6mb 50f 55f
Mon 11/24 11:04pm 6ft 8s 16 18 mph 1002mb 50f 54f
10:04pm 6.5ft 8s 18 20 mph 1001.7mb 50f 54f
9:04pm 6ft 8s 18 20 mph 1001.1mb 50f 55f
8:04pm 7ft 6s 20 22 mph 1000.3mb 50f 54f
7:04pm 6.5ft 8s 20 25 mph 1000.5mb 50f 55f
6:04pm 7ft 8s 20 25 mph 1000.2mb 50f 55f
5:04pm 7.5ft 8s 27 31 mph 998.6mb 50f 55f
4:04pm 8ft 8s 22 25 mph 999.3mb 50f 55f
3:04pm 7ft 8s 20 22 mph 999.9mb 50f 55f
2:04pm 10ft 8s 22 27 mph 1000.5mb 50f 54f
1:04pm 9ft 8s 25 31 mph 1001.2mb 50f 54f
12:04pm 8.5ft 6s 29 36 mph 1002.4mb 50f 55f
11:04am 8.5ft 6s 27 34 mph 1003.5mb 50f 54f
10:04am 7ft 5s 31 38 mph 1005.3mb 50f 54f
9:04am 6ft 5s 29 36 mph 1007.1mb 50f 54f
8:04am 4.5ft 5s 27 31 mph 1009.1mb 50f 53f
7:04am 3ft 4s 20 25 mph 1011.5mb 50f 53f
6:04am 2.5ft 4s 18 20 mph 1012.6mb 50f 52f
5:04am 2ft 4s 11 13 mph 1014.3mb 50f 51f
4:04am 2.5ft 4s 11 13 mph 1015.4mb 50f 50f
3:04am 2.5ft 4s 16 18 mph 1016.2mb 50f 50f
2:04am 2.5ft 4s 11 16 mph 1016.7mb 51f 50f
1:04am 2ft 6s 11 16 mph 1016.8mb 51f 50f
12:04am 2ft 8s 13 16 mph 1017.6mb 51f 50f
Sun 11/23 11:04pm 2ft 8s 11 16 mph 1018mb 51f 51f
10:04pm 1.6ft 8s 11
mph
1018.3mb 51f 51f
9:04pm 1.6ft 8s 4
mph
1018.2mb 51f 51f
8:04pm 1.6ft 5s 4
mph
1018.9mb 51f 52f
7:04pm 1.6ft 8s 7
mph
1019.4mb 51f 52f
6:04pm 1.6ft 4s 9 11 mph 1018.4mb 51f 52f
5:04pm 1.6ft 8s 9 11 mph 1018.2mb 51f 52f
4:04pm 2ft 4s 9 11 mph 1018.1mb 51f 52f
3:04pm 2ft 5s 9 11 mph 1017.7mb 51f 53f
2:04pm 2.5ft 5s 9
mph
1017.2mb 51f 52f
1:04pm 2.5ft 5s 9 11 mph 1017.2mb 51f 51f
12:04pm 2.5ft 5s 13 16 mph 1017.1mb 51f 50f